sensor_id;sensor_type;location;lat;lon;timestamp;temperature;humidity
62912;DHT22;49111;51.028;4.218;2022-12-07T06:50:17;6.30;99.90
62912;DHT22;49111;51.028;4.218;2022-12-07T06:52:43;6.30;99.90
62912;DHT22;49111;51.028;4.218;2022-12-07T06:55:09;6.30;99.90
62912;DHT22;49111;51.028;4.218;2022-12-07T06:57:34;6.30;99.90
62912;DHT22;49111;51.028;4.218;2022-12-07T07:00:00;6.20;99.90
62912;DHT22;49111;51.028;4.218;2022-12-07T07:02:26;6.30;99.90
62912;DHT22;49111;51.028;4.218;2022-12-07T07:04:52;6.30;99.90
62912;DHT22;49111;51.028;4.218;2022-12-07T07:07:18;6.30;99.90
62912;DHT22;49111;51.028;4.218;2022-12-07T07:09:43;6.30;99.90
62912;DHT22;49111;51.028;4.218;2022-12-07T07:12:09;6.30;99.90
62912;DHT22;49111;51.028;4.218;2022-12-07T07:14:35;6.30;99.90
62912;DHT22;49111;51.028;4.218;2022-12-07T07:17:01;6.30;99.90
62912;DHT22;49111;51.028;4.218;2022-12-07T07:19:27;6.30;99.90
62912;DHT22;49111;51.028;4.218;2022-12-07T07:21:53;6.20;99.90
62912;DHT22;49111;51.028;4.218;2022-12-07T07:24:19;6.30;99.90
62912;DHT22;49111;51.028;4.218;2022-12-07T07:26:45;6.10;99.90
62912;DHT22;49111;51.028;4.218;2022-12-07T07:29:10;6.10;99.90
62912;DHT22;49111;51.028;4.218;2022-12-07T07:31:36;6.00;99.90
62912;DHT22;49111;51.028;4.218;2022-12-07T07:34:02;6.00;99.90
62912;DHT22;49111;51.028;4.218;2022-12-07T07:36:28;5.90;99.90
62912;DHT22;49111;51.028;4.218;2022-12-07T07:38:54;5.90;99.90
62912;DHT22;49111;51.028;4.218;2022-12-07T07:41:20;5.90;99.90
62912;DHT22;49111;51.028;4.218;2022-12-07T07:43:45;5.90;99.90
62912;DHT22;49111;51.028;4.218;2022-12-07T07:46:14;5.80;99.90
62912;DHT22;49111;51.028;4.218;2022-12-07T07:48:40;5.80;99.90
62912;DHT22;49111;51.028;4.218;2022-12-07T07:51:10;6.10;99.90
62912;DHT22;49111;51.028;4.218;2022-12-07T07:53:35;5.70;99.90
62912;DHT22;49111;51.028;4.218;2022-12-07T07:56:01;5.70;99.90
62912;DHT22;49111;51.028;4.218;2022-12-07T07:58:27;5.60;99.90
62912;DHT22;49111;51.028;4.218;2022-12-07T08:00:55;5.60;99.90
62912;DHT22;49111;51.028;4.218;2022-12-07T08:03:21;5.70;99.90
62912;DHT22;49111;51.028;4.218;2022-12-07T08:05:47;5.60;99.90
62912;DHT22;49111;51.028;4.218;2022-12-07T08:08:13;5.70;99.90
62912;DHT22;49111;51.028;4.218;2022-12-07T08:10:39;5.70;99.90
62912;DHT22;49111;51.028;4.218;2022-12-07T08:13:05;5.70;99.90
62912;DHT22;49111;51.028;4.218;2022-12-07T08:15:37;5.80;99.90
62912;DHT22;49111;51.028;4.218;2022-12-07T08:18:04;5.70;99.90
62912;DHT22;49111;51.028;4.218;2022-12-07T08:20:32;5.80;99.90
62912;DHT22;49111;51.028;4.218;2022-12-07T08:22:58;5.80;99.90
62912;DHT22;49111;51.028;4.218;2022-12-07T08:25:24;5.90;99.90
62912;DHT22;49111;51.028;4.218;2022-12-07T08:27:51;5.90;99.90
62912;DHT22;49111;51.028;4.218;2022-12-07T08:30:17;5.90;99.90
62912;DHT22;49111;51.028;4.218;2022-12-07T08:32:47;5.90;99.90
62912;DHT22;49111;51.028;4.218;2022-12-07T08:35:13;6.00;99.90
62912;DHT22;49111;51.028;4.218;2022-12-07T08:37:39;6.20;99.90
62912;DHT22;49111;51.028;4.218;2022-12-07T08:40:11;6.10;99.90
62912;DHT22;49111;51.028;4.218;2022-12-07T08:42:47;6.20;99.90
62912;DHT22;49111;51.028;4.218;2022-12-07T08:45:15;6.20;99.90
62912;DHT22;49111;51.028;4.218;2022-12-07T08:47:49;6.30;99.90
62912;DHT22;49111;51.028;4.218;2022-12-07T08:50:16;6.30;99.90
62912;DHT22;49111;51.028;4.218;2022-12-07T08:52:43;6.40;99.90
62912;DHT22;49111;51.028;4.218;2022-12-07T08:55:12;6.60;99.90
62912;DHT22;49111;51.028;4.218;2022-12-07T08:57:39;6.80;99.90
62912;DHT22;49111;51.028;4.218;2022-12-07T09:00:07;6.60;99.90
62912;DHT22;49111;51.028;4.218;2022-12-07T09:02:33;6.70;99.90
62912;DHT22;49111;51.028;4.218;2022-12-07T09:04:58;6.80;99.90
62912;DHT22;49111;51.028;4.218;2022-12-07T09:07:25;6.70;99.90
62912;DHT22;49111;51.028;4.218;2022-12-07T09:09:51;6.70;99.90
62912;DHT22;49111;51.028;4.218;2022-12-07T09:12:17;6.70;99.90
62912;DHT22;49111;51.028;4.218;2022-12-07T09:14:43;6.80;99.90
62912;DHT22;49111;51.028;4.218;2022-12-07T09:17:11;6.80;99.90
62912;DHT22;49111;51.028;4.218;2022-12-07T09:19:37;7.20;99.90
62912;DHT22;49111;51.028;4.218;2022-12-07T09:22:04;7.10;99.90
62912;DHT22;49111;51.028;4.218;2022-12-07T09:24:31;7.20;99.90
62912;DHT22;49111;51.028;4.218;2022-12-07T09:26:58;7.30;99.90
62912;DHT22;49111;51.028;4.218;2022-12-07T09:29:24;7.40;99.90
62912;DHT22;49111;51.028;4.218;2022-12-07T09:31:51;7.50;99.90
62912;DHT22;49111;51.028;4.218;2022-12-07T09:34:18;7.50;99.90
62912;DHT22;49111;51.028;4.218;2022-12-07T09:36:44;7.50;99.90
62912;DHT22;49111;51.028;4.218;2022-12-07T09:39:10;7.50;99.90
62912;DHT22;49111;51.028;4.218;2022-12-07T09:41:43;7.60;99.90
62912;DHT22;49111;51.028;4.218;2022-12-07T09:44:17;7.70;99.90
62912;DHT22;49111;51.028;4.218;2022-12-07T09:46:45;7.70;99.90
62912;DHT22;49111;51.028;4.218;2022-12-07T09:49:21;7.70;99.90
62912;DHT22;49111;51.028;4.218;2022-12-07T09:52:24;7.60;99.90
62912;DHT22;49111;51.028;4.218;2022-12-07T09:54:48;7.60;99.90
62912;DHT22;49111;51.028;4.218;2022-12-07T09:57:16;7.80;99.90
62912;DHT22;49111;51.028;4.218;2022-12-07T09:59:42;7.60;99.90
62912;DHT22;49111;51.028;4.218;2022-12-07T10:02:40;7.70;99.90
62912;DHT22;49111;51.028;4.218;2022-12-07T10:05:16;7.70;99.90
62912;DHT22;49111;51.028;4.218;2022-12-07T10:07:42;7.80;99.90
62912;DHT22;49111;51.028;4.218;2022-12-07T10:10:19;7.60;99.90
62912;DHT22;49111;51.028;4.218;2022-12-07T10:13:03;7.40;99.90
62912;DHT22;49111;51.028;4.218;2022-12-07T10:15:52;7.30;99.90
62912;DHT22;49111;51.028;4.218;2022-12-07T10:21:19;7.40;99.90
62912;DHT22;49111;51.028;4.218;2022-12-07T10:29:32;7.20;99.90
62912;DHT22;49111;51.028;4.218;2022-12-07T10:34:37;7.20;99.90
62912;DHT22;49111;51.028;4.218;2022-12-07T10:37:21;7.20;99.90
62912;DHT22;49111;51.028;4.218;2022-12-07T10:39:53;7.20;99.90
62912;DHT22;49111;51.028;4.218;2022-12-07T10:42:31;7.20;99.90
62912;DHT22;49111;51.028;4.218;2022-12-07T10:45:15;7.30;99.90
62912;DHT22;49111;51.028;4.218;2022-12-07T10:50:59;7.30;99.90
62912;DHT22;49111;51.028;4.218;2022-12-07T10:58:52;7.20;99.90
62912;DHT22;49111;51.028;4.218;2022-12-07T11:07:07;7.60;99.90
62912;DHT22;49111;51.028;4.218;2022-12-07T11:09:49;7.60;99.90
62912;DHT22;49111;51.028;4.218;2022-12-07T11:17:47;7.70;99.90
62912;DHT22;49111;51.028;4.218;2022-12-07T11:24:06;7.90;99.90
62912;DHT22;49111;51.028;4.218;2022-12-07T11:27:06;7.90;99.90
62912;DHT22;49111;51.028;4.218;2022-12-07T11:37:36;8.10;99.90
62912;DHT22;49111;51.028;4.218;2022-12-07T11:40:13;8.20;99.90
62912;DHT22;49111;51.028;4.218;2022-12-07T11:42:45;8.20;99.90
62912;DHT22;49111;51.028;4.218;2022-12-07T11:45:16;8.20;99.90
62912;DHT22;49111;51.028;4.218;2022-12-07T11:47:47;8.00;99.90
62912;DHT22;49111;51.028;4.218;2022-12-07T11:53:02;8.00;99.90
62912;DHT22;49111;51.028;4.218;2022-12-07T12:03:47;8.00;99.90
62912;DHT22;49111;51.028;4.218;2022-12-07T12:06:13;8.10;99.90
62912;DHT22;49111;51.028;4.218;2022-12-07T12:08:50;8.30;99.90
62912;DHT22;49111;51.028;4.218;2022-12-07T12:19:32;8.70;99.90
62912;DHT22;49111;51.028;4.218;2022-12-07T12:24:40;8.80;99.90
62912;DHT22;49111;51.028;4.218;2022-12-07T12:27:14;9.00;99.90
62912;DHT22;49111;51.028;4.218;2022-12-07T12:29:41;9.10;99.90
62912;DHT22;49111;51.028;4.218;2022-12-07T12:37:55;8.90;99.90
62912;DHT22;49111;51.028;4.218;2022-12-07T12:48:07;8.80;99.90
62912;DHT22;49111;51.028;4.218;2022-12-07T12:50:47;8.80;99.90
62912;DHT22;49111;51.028;4.218;2022-12-07T12:53:22;8.70;99.90
62912;DHT22;49111;51.028;4.218;2022-12-07T12:55:54;8.60;99.90
62912;DHT22;49111;51.028;4.218;2022-12-07T12:58:37;8.60;99.90
62912;DHT22;49111;51.028;4.218;2022-12-07T13:04:01;8.70;99.90
62912;DHT22;49111;51.028;4.218;2022-12-07T13:08:56;8.70;99.90
62912;DHT22;49111;51.028;4.218;2022-12-07T13:11:33;8.70;99.90
62912;DHT22;49111;51.028;4.218;2022-12-07T13:17:03;8.90;99.90
62912;DHT22;49111;51.028;4.218;2022-12-07T13:27:54;8.70;99.90
62912;DHT22;49111;51.028;4.218;2022-12-07T13:30:22;8.40;99.90
62912;DHT22;49111;51.028;4.218;2022-12-07T13:32:52;8.10;99.90
62912;DHT22;49111;51.028;4.218;2022-12-07T13:35:37;8.00;99.90
62912;DHT22;49111;51.028;4.218;2022-12-07T13:38:14;7.90;99.90
62912;DHT22;49111;51.028;4.218;2022-12-07T13:41:11;7.70;99.90
62912;DHT22;49111;51.028;4.218;2022-12-07T13:44:05;7.50;99.90
62912;DHT22;49111;51.028;4.218;2022-12-07T13:49:47;7.40;99.90
62912;DHT22;49111;51.028;4.218;2022-12-07T13:52:31;7.40;99.90
62912;DHT22;49111;51.028;4.218;2022-12-07T13:57:34;7.50;99.90
62912;DHT22;49111;51.028;4.218;2022-12-07T14:00:03;7.70;99.90
62912;DHT22;49111;51.028;4.218;2022-12-07T14:02:32;7.70;99.90
62912;DHT22;49111;51.028;4.218;2022-12-07T14:05:13;7.90;99.90
62912;DHT22;49111;51.028;4.218;2022-12-07T14:07:57;7.80;99.90
62912;DHT22;49111;51.028;4.218;2022-12-07T14:13:32;8.00;99.90
62912;DHT22;49111;51.028;4.218;2022-12-07T14:16:03;8.00;99.90
62912;DHT22;49111;51.028;4.218;2022-12-07T14:18:37;8.00;99.90
62912;DHT22;49111;51.028;4.218;2022-12-07T14:21:18;8.00;99.90
62912;DHT22;49111;51.028;4.218;2022-12-07T14:23:45;8.00;99.90
62912;DHT22;49111;51.028;4.218;2022-12-07T14:26:27;8.00;99.90
62912;DHT22;49111;51.028;4.218;2022-12-07T14:28:59;8.00;99.90
62912;DHT22;49111;51.028;4.218;2022-12-07T14:31:38;7.90;99.90
62912;DHT22;49111;51.028;4.218;2022-12-07T14:34:04;8.00;99.90
62912;DHT22;49111;51.028;4.218;2022-12-07T14:36:32;8.10;99.90
62912;DHT22;49111;51.028;4.218;2022-12-07T14:39:00;8.20;99.90
62912;DHT22;49111;51.028;4.218;2022-12-07T14:41:57;8.00;99.90
62912;DHT22;49111;51.028;4.218;2022-12-07T14:44:24;8.00;99.90
62912;DHT22;49111;51.028;4.218;2022-12-07T14:46:51;7.90;99.90
62912;DHT22;49111;51.028;4.218;2022-12-07T14:49:18;8.00;99.90
62912;DHT22;49111;51.028;4.218;2022-12-07T14:51:47;7.90;99.90
62912;DHT22;49111;51.028;4.218;2022-12-07T14:54:18;8.00;99.90
62912;DHT22;49111;51.028;4.218;2022-12-07T14:56:45;7.90;99.90
62912;DHT22;49111;51.028;4.218;2022-12-07T14:59:16;8.00;99.90
62912;DHT22;49111;51.028;4.218;2022-12-07T15:01:42;8.00;99.90
62912;DHT22;49111;51.028;4.218;2022-12-07T15:04:08;7.90;99.90
62912;DHT22;49111;51.028;4.218;2022-12-07T15:06:34;7.70;99.90
62912;DHT22;49111;51.028;4.218;2022-12-07T15:09:00;7.50;99.90
62912;DHT22;49111;51.028;4.218;2022-12-07T15:11:26;7.30;99.90
62912;DHT22;49111;51.028;4.218;2022-12-07T15:13:52;7.30;99.90
62912;DHT22;49111;51.028;4.218;2022-12-07T15:16:38;7.30;99.90
62912;DHT22;49111;51.028;4.218;2022-12-07T15:19:20;7.30;99.90
62912;DHT22;49111;51.028;4.218;2022-12-07T15:21:48;7.30;99.90
62912;DHT22;49111;51.028;4.218;2022-12-07T15:24:19;7.30;99.90
62912;DHT22;49111;51.028;4.218;2022-12-07T15:26:46;7.50;99.90
62912;DHT22;49111;51.028;4.218;2022-12-07T15:29:12;7.50;99.90
62912;DHT22;49111;51.028;4.218;2022-12-07T15:31:49;7.40;99.90
62912;DHT22;49111;51.028;4.218;2022-12-07T15:34:16;7.50;99.90
62912;DHT22;49111;51.028;4.218;2022-12-07T15:37:17;7.50;99.90
62912;DHT22;49111;51.028;4.218;2022-12-07T15:39:45;7.50;99.90
62912;DHT22;49111;51.028;4.218;2022-12-07T15:42:11;7.40;99.90
62912;DHT22;49111;51.028;4.218;2022-12-07T15:44:37;7.40;99.90
62912;DHT22;49111;51.028;4.218;2022-12-07T15:47:21;7.40;99.90
62912;DHT22;49111;51.028;4.218;2022-12-07T15:49:47;7.40;99.90
62912;DHT22;49111;51.028;4.218;2022-12-07T15:52:13;7.50;99.90
62912;DHT22;49111;51.028;4.218;2022-12-07T15:54:39;7.70;99.90
62912;DHT22;49111;51.028;4.218;2022-12-07T15:57:05;7.60;99.90
62912;DHT22;49111;51.028;4.218;2022-12-07T15:59:30;7.60;99.90
62912;DHT22;49111;51.028;4.218;2022-12-07T16:01:56;7.50;99.90
62912;DHT22;49111;51.028;4.218;2022-12-07T16:04:22;7.60;99.90
62912;DHT22;49111;51.028;4.218;2022-12-07T16:06:50;7.50;99.90
62912;DHT22;49111;51.028;4.218;2022-12-07T16:09:16;7.50;99.90
62912;DHT22;49111;51.028;4.218;2022-12-07T16:11:42;7.50;99.90
62912;DHT22;49111;51.028;4.218;2022-12-07T16:14:08;7.50;99.90
62912;DHT22;49111;51.028;4.218;2022-12-07T16:16:34;7.50;99.90
62912;DHT22;49111;51.028;4.218;2022-12-07T16:19:00;7.60;99.90
62912;DHT22;49111;51.028;4.218;2022-12-07T16:21:25;7.50;99.90
62912;DHT22;49111;51.028;4.218;2022-12-07T16:23:52;7.50;99.90
62912;DHT22;49111;51.028;4.218;2022-12-07T16:26:20;7.60;99.90
62912;DHT22;49111;51.028;4.218;2022-12-07T16:28:51;7.50;99.90
62912;DHT22;49111;51.028;4.218;2022-12-07T16:31:21;7.50;99.90
62912;DHT22;49111;51.028;4.218;2022-12-07T16:33:49;7.50;99.90
62912;DHT22;49111;51.028;4.218;2022-12-07T16:36:16;7.50;99.90
62912;DHT22;49111;51.028;4.218;2022-12-07T16:38:43;7.70;99.90
62912;DHT22;49111;51.028;4.218;2022-12-07T16:41:10;7.60;99.90
62912;DHT22;49111;51.028;4.218;2022-12-07T16:43:36;7.60;99.90
62912;DHT22;49111;51.028;4.218;2022-12-07T16:46:03;7.60;99.90
62912;DHT22;49111;51.028;4.218;2022-12-07T16:48:29;7.60;99.90
62912;DHT22;49111;51.028;4.218;2022-12-07T16:50:56;7.60;99.90
62912;DHT22;49111;51.028;4.218;2022-12-07T16:53:23;7.60;99.90
62912;DHT22;49111;51.028;4.218;2022-12-07T16:55:50;7.60;99.90
62912;DHT22;49111;51.028;4.218;2022-12-07T16:58:17;7.60;99.90
62912;DHT22;49111;51.028;4.218;2022-12-07T17:00:44;7.70;99.90
62912;DHT22;49111;51.028;4.218;2022-12-07T17:03:10;7.60;99.90
62912;DHT22;49111;51.028;4.218;2022-12-07T17:05:38;7.80;99.90
62912;DHT22;49111;51.028;4.218;2022-12-07T17:08:05;7.70;99.90
62912;DHT22;49111;51.028;4.218;2022-12-07T17:10:33;7.60;99.90
62912;DHT22;49111;51.028;4.218;2022-12-07T17:13:02;7.60;99.90
62912;DHT22;49111;51.028;4.218;2022-12-07T17:15:28;7.70;99.90
62912;DHT22;49111;51.028;4.218;2022-12-07T17:17:56;7.70;99.90
62912;DHT22;49111;51.028;4.218;2022-12-07T17:20:24;7.70;99.90
62912;DHT22;49111;51.028;4.218;2022-12-07T17:22:52;7.90;99.90
62912;DHT22;49111;51.028;4.218;2022-12-07T17:25:19;7.70;99.90
62912;DHT22;49111;51.028;4.218;2022-12-07T17:27:46;7.70;99.90
62912;DHT22;49111;51.028;4.218;2022-12-07T17:30:13;7.80;99.90
62912;DHT22;49111;51.028;4.218;2022-12-07T17:32:40;7.70;99.90
62912;DHT22;49111;51.028;4.218;2022-12-07T17:35:07;7.70;99.90
62912;DHT22;49111;51.028;4.218;2022-12-07T17:37:33;7.60;99.90
62912;DHT22;49111;51.028;4.218;2022-12-07T17:39:59;7.60;99.90
62912;DHT22;49111;51.028;4.218;2022-12-07T17:42:25;7.70;99.90
62912;DHT22;49111;51.028;4.218;2022-12-07T17:45:10;7.80;99.90
62912;DHT22;49111;51.028;4.218;2022-12-07T17:47:37;7.50;99.90
62912;DHT22;49111;51.028;4.218;2022-12-07T17:50:05;7.50;99.90
62912;DHT22;49111;51.028;4.218;2022-12-07T17:52:31;7.40;99.90
62912;DHT22;49111;51.028;4.218;2022-12-07T17:55:18;7.40;99.90
62912;DHT22;49111;51.028;4.218;2022-12-07T17:57:44;7.20;99.90
62912;DHT22;49111;51.028;4.218;2022-12-07T18:00:10;7.20;99.90
62912;DHT22;49111;51.028;4.218;2022-12-07T18:02:39;7.10;99.90
62912;DHT22;49111;51.028;4.218;2022-12-07T18:05:08;7.10;99.90
62912;DHT22;49111;51.028;4.218;2022-12-07T18:07:36;7.20;99.90
62912;DHT22;49111;51.028;4.218;2022-12-07T18:10:03;7.20;99.90
62912;DHT22;49111;51.028;4.218;2022-12-07T18:12:32;7.20;99.90
62912;DHT22;49111;51.028;4.218;2022-12-07T18:14:57;7.20;99.90
62912;DHT22;49111;51.028;4.218;2022-12-07T18:17:23;7.20;99.90
62912;DHT22;49111;51.028;4.218;2022-12-07T18:19:49;7.20;99.90
62912;DHT22;49111;51.028;4.218;2022-12-07T18:22:15;7.20;99.90
62912;DHT22;49111;51.028;4.218;2022-12-07T18:24:41;7.20;99.90
62912;DHT22;49111;51.028;4.218;2022-12-07T18:27:07;7.20;99.90
62912;DHT22;49111;51.028;4.218;2022-12-07T18:29:32;7.10;99.90
62912;DHT22;49111;51.028;4.218;2022-12-07T18:31:58;7.20;99.90
62912;DHT22;49111;51.028;4.218;2022-12-07T18:34:25;7.20;99.90
62912;DHT22;49111;51.028;4.218;2022-12-07T18:36:53;7.30;99.90
62912;DHT22;49111;51.028;4.218;2022-12-07T18:39:19;7.10;99.90
62912;DHT22;49111;51.028;4.218;2022-12-07T18:41:45;7.10;99.90
62912;DHT22;49111;51.028;4.218;2022-12-07T18:44:12;7.10;99.90
62912;DHT22;49111;51.028;4.218;2022-12-07T18:46:38;7.10;99.90
62912;DHT22;49111;51.028;4.218;2022-12-07T18:49:07;7.10;99.90
62912;DHT22;49111;51.028;4.218;2022-12-07T18:51:33;7.10;99.90
62912;DHT22;49111;51.028;4.218;2022-12-07T18:53:59;7.10;99.90
62912;DHT22;49111;51.028;4.218;2022-12-07T18:56:26;7.30;99.90
62912;DHT22;49111;51.028;4.218;2022-12-07T18:59:00;7.30;99.90
62912;DHT22;49111;51.028;4.218;2022-12-07T19:01:48;7.20;99.90
62912;DHT22;49111;51.028;4.218;2022-12-07T19:04:17;7.40;99.90
62912;DHT22;49111;51.028;4.218;2022-12-07T19:06:45;7.30;99.90
62912;DHT22;49111;51.028;4.218;2022-12-07T19:09:11;7.30;99.90
62912;DHT22;49111;51.028;4.218;2022-12-07T19:11:38;7.20;99.90
62912;DHT22;49111;51.028;4.218;2022-12-07T19:14:23;7.20;99.90
62912;DHT22;49111;51.028;4.218;2022-12-07T19:16:52;7.10;99.90
62912;DHT22;49111;51.028;4.218;2022-12-07T19:19:50;7.00;99.90
62912;DHT22;49111;51.028;4.218;2022-12-07T19:22:20;7.00;99.90
62912;DHT22;49111;51.028;4.218;2022-12-07T19:24:51;7.10;99.90
62912;DHT22;49111;51.028;4.218;2022-12-07T19:27:19;6.90;99.90
